createdAt,value
2023-01-13T06:52:40.943Z,98654.50
2023-01-13T06:54:42.347Z,98653.50
2023-01-13T06:56:43.760Z,98663.41
2023-01-13T06:58:45.154Z,98661.84
2023-01-13T07:00:51.210Z,98652.56
2023-01-13T07:02:52.926Z,98660.78
2023-01-13T07:04:54.354Z,98653.75
2023-01-13T07:06:55.840Z,98658.56
2023-01-13T07:08:57.285Z,98680.41
2023-01-13T07:10:58.739Z,98667.50
2023-01-13T07:13:20.249Z,98665.69
2023-01-13T07:15:21.776Z,98669.16
2023-01-13T07:17:25.215Z,98663.22
2023-01-13T07:19:26.738Z,98670.53
2023-01-13T07:21:28.167Z,98671.38
2023-01-13T07:23:31.810Z,98667.75
2023-01-13T07:25:33.156Z,98670.81
2023-01-13T07:27:35.246Z,98677.81
2023-01-13T07:29:37.418Z,98671.88
2023-01-13T07:31:39.934Z,98678.13
2023-01-13T07:33:41.438Z,98673.44
2023-01-13T07:35:42.803Z,98683.78
2023-01-13T07:37:44.236Z,98690.47
2023-01-13T07:39:46.343Z,98688.94
2023-01-13T07:42:06.510Z,98686.44
2023-01-13T07:44:10.660Z,98684.69
2023-01-13T07:46:12.058Z,98692.34
2023-01-13T07:48:13.705Z,98677.09
2023-01-13T07:50:15.117Z,98676.53
2023-01-13T07:52:16.489Z,98687.75
2023-01-13T07:54:19.311Z,98685.91
2023-01-13T07:56:21.124Z,98673.25
2023-01-13T07:58:22.839Z,98681.88
2023-01-13T08:00:24.256Z,98686.22
2023-01-13T08:02:25.802Z,98692.72
2023-01-13T08:04:27.242Z,98700.72
2023-01-13T08:06:28.818Z,98698.16
2023-01-13T08:08:30.246Z,98698.44
2023-01-13T08:10:31.630Z,98698.56
2023-01-13T08:12:55.702Z,98708.63
2023-01-13T08:14:58.691Z,98698.94
2023-01-13T08:17:00.122Z,98707.16
2023-01-13T08:19:01.592Z,98723.75
2023-01-13T08:21:06.064Z,98725.91
2023-01-13T08:23:07.690Z,98727.28
2023-01-13T08:25:09.355Z,98721.38
2023-01-13T08:27:10.791Z,98733.97
2023-01-13T08:29:14.743Z,98731.34
2023-01-13T08:31:17.319Z,98736.59
2023-01-13T08:33:19.754Z,98741.63
2023-01-13T08:35:22.125Z,98742.22
2023-01-13T08:37:23.488Z,98740.97
2023-01-13T08:39:25.461Z,98746.81
2023-01-13T08:41:45.174Z,98738.56
2023-01-13T08:43:46.523Z,98742.81
2023-01-13T08:45:56.647Z,98735.47
2023-01-13T08:47:58.823Z,98732.03
2023-01-13T08:50:00.202Z,98740.75
2023-01-13T08:52:01.746Z,98741.34
2023-01-13T08:54:03.254Z,98753.06
2023-01-13T08:56:11.606Z,98756.00
2023-01-13T08:58:16.418Z,98768.91
2023-01-13T09:00:18.532Z,98764.09
2023-01-13T09:02:22.297Z,98765.25
2023-01-13T09:04:27.492Z,98759.19
2023-01-13T09:06:28.896Z,98768.09
2023-01-13T09:08:30.412Z,98766.25
2023-01-13T09:10:32.324Z,98767.06
2023-01-13T09:12:52.287Z,98765.03
2023-01-13T09:14:53.669Z,98770.06
2023-01-13T09:16:55.155Z,98765.97
2023-01-13T09:18:56.527Z,98769.16
2023-01-13T09:20:59.013Z,98772.38
2023-01-13T09:23:00.609Z,98772.59
2023-01-13T09:25:02.046Z,98766.88
2023-01-13T09:27:03.611Z,98778.09
2023-01-13T09:29:05.431Z,98754.44
2023-01-13T09:31:06.847Z,98773.22
2023-01-13T09:33:26.854Z,98772.63
2023-01-13T09:35:28.238Z,98765.53
2023-01-13T09:37:33.996Z,98774.81
2023-01-13T09:39:36.413Z,98760.19
2023-01-13T09:42:01.404Z,98764.75
2023-01-13T09:44:04.855Z,98762.13
2023-01-13T09:46:44.027Z,98770.94
2023-01-13T09:48:54.759Z,98772.69
2023-01-13T09:51:14.678Z,98778.06
2023-01-13T09:53:50.936Z,98779.88
2023-01-13T09:55:52.943Z,98786.53
2023-01-13T09:57:54.773Z,98774.97
2023-01-13T09:59:57.797Z,98773.38
2023-01-13T10:02:27.776Z,98777.72
2023-01-13T10:04:29.225Z,98770.03
2023-01-13T10:06:38.712Z,98773.63
2023-01-13T10:08:44.739Z,98782.88
2023-01-13T10:10:48.904Z,98761.25
2023-01-13T10:13:09.081Z,98750.72
2023-01-13T10:15:20.419Z,98778.19
2023-01-13T10:17:28.476Z,98775.44
2023-01-13T10:19:37.849Z,98765.38
2023-01-13T10:21:45.081Z,98770.75
2023-01-13T10:23:52.346Z,98769.38
2023-01-13T10:26:24.074Z,98778.63
2023-01-13T10:28:26.409Z,98793.88
2023-01-13T10:30:34.001Z,98795.38
2023-01-13T10:32:35.371Z,98804.06
2023-01-13T10:34:51.905Z,98796.72
2023-01-13T10:37:08.428Z,98781.88
2023-01-13T10:39:15.901Z,98775.91
2023-01-13T10:41:19.909Z,98786.34
2023-01-13T10:43:21.851Z,98788.50
2023-01-13T10:45:26.136Z,98789.78
2023-01-13T10:47:30.261Z,98787.13
2023-01-13T10:49:38.481Z,98793.56
2023-01-13T10:51:39.824Z,98771.34
2023-01-13T10:53:54.078Z,98775.34
2023-01-13T10:56:04.296Z,98781.31
2023-01-13T10:58:19.710Z,98773.88
2023-01-13T11:00:33.447Z,98784.50
2023-01-13T11:02:35.954Z,98777.66
2023-01-13T11:04:40.639Z,98788.06
2023-01-13T11:06:46.477Z,98792.63
2023-01-13T11:08:50.226Z,98788.41
2023-01-13T11:10:56.497Z,98788.97
2023-01-13T11:13:08.407Z,98803.28
2023-01-13T11:15:15.311Z,98782.91
2023-01-13T11:17:16.648Z,98791.44
2023-01-13T11:19:21.518Z,98790.19
2023-01-13T11:21:27.850Z,98796.38
2023-01-13T11:23:37.304Z,98790.78
2023-01-13T11:25:42.978Z,98790.06
2023-01-13T11:27:47.861Z,98791.94
2023-01-13T11:30:09.927Z,98795.91
2023-01-13T11:32:23.095Z,98795.13
2023-01-13T11:34:36.711Z,98797.28
2023-01-13T11:36:43.678Z,98802.22
2023-01-13T11:38:47.822Z,98804.53
2023-01-13T11:40:50.703Z,98801.34
2023-01-13T11:42:59.067Z,98813.25
2023-01-13T11:45:16.532Z,98809.38
2023-01-13T11:47:23.519Z,98812.78
2023-01-13T11:49:30.625Z,98809.22
2023-01-13T11:51:35.016Z,98820.56
2023-01-13T11:54:12.191Z,98811.28
2023-01-13T11:56:32.371Z,98821.69
2023-01-13T11:58:50.952Z,98819.75
2023-01-13T12:01:08.648Z,98827.97
2023-01-13T12:03:42.740Z,98817.06
2023-01-13T12:05:58.629Z,98807.59
2023-01-13T12:08:26.537Z,98814.13
2023-01-13T12:10:43.081Z,98826.94
2023-01-13T12:13:14.890Z,98818.50
2023-01-13T12:15:22.416Z,98817.69
2023-01-13T12:17:38.287Z,98793.44
2023-01-13T12:19:45.078Z,98805.22
2023-01-13T12:21:55.201Z,98815.75
2023-01-13T12:24:05.755Z,98814.72
2023-01-13T12:26:11.762Z,98814.97
2023-01-13T12:28:42.945Z,98800.66
2023-01-13T12:31:14.155Z,98804.75
2023-01-13T12:33:46.794Z,98815.38
2023-01-13T12:36:04.809Z,98813.00
2023-01-13T12:38:37.411Z,98804.41
2023-01-13T12:40:47.920Z,98813.56
2023-01-13T12:43:26.290Z,98824.22
2023-01-13T12:45:32.882Z,98818.56
2023-01-13T12:47:54.015Z,98836.44
2023-01-13T12:50:24.691Z,98834.72
2023-01-13T12:52:26.381Z,98856.63
2023-01-13T12:54:30.510Z,98863.50
2023-01-13T12:56:45.830Z,98856.19
2023-01-13T12:58:47.267Z,98860.38
2023-01-13T13:01:00.217Z,98863.50
2023-01-13T13:03:09.776Z,98857.19
2023-01-13T13:05:14.685Z,98856.75
2023-01-13T13:07:23.508Z,98858.66
2023-01-13T13:09:33.037Z,98871.81
2023-01-13T13:11:56.878Z,98877.63
2023-01-13T13:14:03.406Z,98863.41
2023-01-13T13:16:26.770Z,98867.69
2023-01-13T13:18:28.763Z,98872.84
2023-01-13T13:21:06.878Z,98871.13
2023-01-13T13:23:38.113Z,98872.88
2023-01-13T13:25:59.984Z,98874.75
2023-01-13T13:28:17.961Z,98885.44
2023-01-13T13:30:48.543Z,98893.91
2023-01-13T13:32:59.343Z,98881.56
2023-01-13T13:35:26.180Z,98889.75
2023-01-13T13:38:05.094Z,98890.13
2023-01-13T13:40:28.839Z,98890.25
2023-01-13T13:42:59.669Z,98910.50
2023-01-13T13:45:21.705Z,98908.53
2023-01-13T13:47:23.221Z,98908.03
2023-01-13T13:49:38.622Z,98912.53
2023-01-13T13:51:46.383Z,98916.75
2023-01-13T13:53:48.153Z,98923.63
2023-01-13T13:55:55.996Z,98942.69
2023-01-13T13:57:59.054Z,98933.22
2023-01-13T14:00:01.060Z,98927.97
2023-01-13T14:02:03.984Z,98939.06
2023-01-13T14:04:19.961Z,98939.78
2023-01-13T14:06:24.395Z,98956.22
2023-01-13T14:08:28.203Z,98959.28
2023-01-13T14:10:35.704Z,98962.88
2023-01-13T14:12:38.256Z,98966.91
2023-01-13T14:14:43.984Z,98962.50
2023-01-13T14:16:46.431Z,98961.56
2023-01-13T14:18:48.556Z,98977.41
2023-01-13T14:21:03.297Z,98976.16
2023-01-13T14:23:05.792Z,98978.88
2023-01-13T14:25:49.704Z,98993.63
2023-01-13T14:27:51.131Z,98990.41
2023-01-13T14:29:54.428Z,99000.44
2023-01-13T14:31:55.975Z,98997.56
2023-01-13T14:34:01.056Z,98990.72
2023-01-13T14:36:11.345Z,98996.19
2023-01-13T14:38:16.348Z,99004.69
2023-01-13T14:40:33.092Z,99023.94
2023-01-13T14:42:35.405Z,99014.22
2023-01-13T14:44:37.066Z,99017.13
2023-01-13T14:46:44.443Z,99025.00
2023-01-13T14:48:47.482Z,99037.22
2023-01-13T14:50:49.007Z,99040.03
2023-01-13T14:52:55.562Z,99034.16
2023-01-13T14:55:02.719Z,99041.84
2023-01-13T14:57:27.627Z,99054.59
2023-01-13T14:59:51.796Z,99045.69
2023-01-13T15:01:54.677Z,99044.13
2023-01-13T15:04:17.201Z,99049.75
2023-01-13T15:06:24.243Z,99061.50
2023-01-13T15:08:27.951Z,99057.28
2023-01-13T15:10:32.437Z,99062.16
2023-01-13T15:12:39.607Z,99069.84
2023-01-13T15:14:41.001Z,99067.78
2023-01-13T15:16:42.424Z,99066.34
2023-01-13T15:18:44.133Z,99062.97
2023-01-13T15:20:46.156Z,99082.41
2023-01-13T15:22:48.629Z,99090.47
2023-01-13T15:24:50.094Z,99098.56
2023-01-13T15:26:52.088Z,99094.34
2023-01-13T15:28:56.196Z,99095.38
2023-01-13T15:31:01.701Z,99113.59
2023-01-13T15:33:03.345Z,99099.06
2023-01-13T15:35:05.236Z,99113.44
2023-01-13T15:37:09.158Z,99119.75
2023-01-13T15:39:12.954Z,99108.25
2023-01-13T15:43:58.405Z,99127.31
2023-01-13T15:46:19.655Z,99130.69
2023-01-13T15:48:22.287Z,99135.38
2023-01-13T15:50:23.680Z,99149.13
2023-01-13T15:52:27.231Z,99151.19
2023-01-13T15:54:28.698Z,99149.13
2023-01-13T15:56:30.176Z,99147.38
2023-01-13T15:58:31.770Z,99140.50
2023-01-13T16:00:33.498Z,99161.88
2023-01-13T16:02:34.914Z,99159.50
2023-01-13T16:04:36.314Z,99150.78
2023-01-13T16:06:37.792Z,99168.00
2023-01-13T16:08:39.238Z,99178.91
2023-01-13T16:10:40.752Z,99165.41
2023-01-13T16:12:42.368Z,99173.25
2023-01-13T16:14:43.769Z,99169.81
2023-01-13T16:16:45.197Z,99165.38
2023-01-13T16:18:46.809Z,99167.75
2023-01-13T16:20:52.682Z,99163.53
2023-01-13T16:22:54.092Z,99156.09
2023-01-13T16:24:55.905Z,99174.88
2023-01-13T16:26:57.291Z,99164.75
2023-01-13T16:28:59.028Z,99175.88
2023-01-13T16:31:00.475Z,99177.50
2023-01-13T16:33:02.640Z,99177.09
2023-01-13T16:35:04.243Z,99178.94
2023-01-13T16:37:24.381Z,99183.16
2023-01-13T16:39:26.613Z,99181.75
2023-01-13T16:41:28.036Z,99184.97
2023-01-13T16:43:29.474Z,99194.72
2023-01-13T16:45:31.620Z,99195.09
2023-01-13T16:47:33.009Z,99189.47
2023-01-13T16:49:34.519Z,99197.91
2023-01-13T16:51:35.935Z,99202.97
2023-01-13T16:53:37.298Z,99197.72
2023-01-13T16:55:40.393Z,99210.03
2023-01-13T16:57:42.098Z,99224.38
2023-01-13T16:59:43.488Z,99221.75
2023-01-13T17:01:45.143Z,99233.25
2023-01-13T17:03:51.347Z,99235.50
2023-01-13T17:05:52.814Z,99254.66
2023-01-13T17:07:54.616Z,99241.53
2023-01-13T17:09:56.039Z,99242.94
2023-01-13T17:11:57.745Z,99251.41
2023-01-13T17:13:59.415Z,99253.06
2023-01-13T17:16:00.775Z,99257.31
2023-01-13T17:18:02.810Z,99260.75
2023-01-13T17:20:04.930Z,99269.63
2023-01-13T17:22:06.329Z,99269.81
2023-01-13T17:24:09.627Z,99262.75
2023-01-13T17:26:28.913Z,99275.88
2023-01-13T17:28:30.340Z,99273.06
2023-01-13T17:30:31.733Z,99280.13
2023-01-13T17:32:33.175Z,99276.50
2023-01-13T17:34:34.551Z,99289.81
2023-01-13T17:36:35.963Z,99283.34
2023-01-13T17:38:37.425Z,99283.56
2023-01-13T17:40:38.885Z,99293.66
2023-01-13T17:42:40.260Z,99274.66
2023-01-13T17:44:42.075Z,99288.84
2023-01-13T17:46:44.375Z,99283.34
2023-01-13T17:48:46.845Z,99288.00
2023-01-13T17:50:49.303Z,99288.59
2023-01-13T17:52:50.651Z,99289.63
2023-01-13T17:54:52.772Z,99307.22
2023-01-13T17:56:56.509Z,99305.19
2023-01-13T17:58:58.552Z,99294.72
2023-01-13T18:00:59.991Z,99298.53
2023-01-13T18:03:01.445Z,99305.19
2023-01-13T18:05:03.174Z,99312.25
2023-01-13T18:07:06.191Z,99308.22
2023-01-13T18:09:07.791Z,99309.63
2023-01-13T18:11:09.594Z,99328.63
2023-01-13T18:13:11.004Z,99312.66
2023-01-13T18:15:12.491Z,99324.56
2023-01-13T18:17:13.936Z,99329.84
2023-01-13T18:19:34.281Z,99318.50
2023-01-13T18:21:54.806Z,99330.44
2023-01-13T18:24:14.702Z,99336.91
2023-01-13T18:26:39.173Z,99332.06
2023-01-13T18:28:40.723Z,99337.91
2023-01-13T18:30:42.140Z,99326.59
2023-01-13T18:32:43.609Z,99337.28
2023-01-13T18:34:45.339Z,99340.16
2023-01-13T18:36:47.120Z,99326.19
2023-01-13T18:38:50.396Z,99343.38
2023-01-13T18:40:51.878Z,99340.16
2023-01-13T18:42:56.166Z,99344.59
2023-01-13T18:44:58.045Z,99353.28
2023-01-13T18:46:59.414Z,99347.63
2023-01-13T18:49:00.841Z,99358.72
2023-01-13T18:51:02.215Z,99350.25
2023-01-13T18:53:03.847Z,99335.09
2023-01-13T18:55:05.560Z,99349.81
2023-01-13T18:57:07.272Z,99348.81
2023-01-13T18:59:08.676Z,99357.28
2023-01-13T19:01:10.601Z,99355.69
2023-01-13T19:03:12.836Z,99369.44
2023-01-13T19:05:14.420Z,99371.06
2023-01-13T19:07:22.366Z,99372.47
2023-01-13T19:09:26.365Z,99375.91
2023-01-13T19:11:30.461Z,99378.91
2023-01-13T19:13:32.140Z,99375.47
2023-01-13T19:15:36.345Z,99375.25
2023-01-13T19:17:37.996Z,99378.50
2023-01-13T19:19:44.631Z,99384.16
2023-01-13T19:21:46.278Z,99378.09
2023-01-13T19:23:47.691Z,99385.56
2023-01-13T19:25:49.038Z,99377.91
2023-01-13T19:27:50.471Z,99389.63
2023-01-13T19:29:53.464Z,99393.25
2023-01-13T19:31:55.815Z,99398.09
2023-01-13T19:33:57.791Z,99404.56
2023-01-13T19:35:59.706Z,99398.09
2023-01-13T19:38:01.127Z,99410.22
2023-01-13T19:40:09.003Z,99406.19
2023-01-13T19:42:30.461Z,99412.22
2023-01-13T19:44:50.286Z,99420.50
2023-01-13T19:46:51.662Z,99423.34
2023-01-13T19:48:53.034Z,99422.13
2023-01-13T19:50:54.485Z,99414.47
2023-01-13T19:52:56.030Z,99415.06
2023-01-13T19:54:57.666Z,99419.31
2023-01-13T19:56:59.033Z,99422.53
2023-01-13T19:59:00.478Z,99428.19
2023-01-13T20:01:09.628Z,99422.94
2023-01-13T20:03:11.110Z,99422.94
2023-01-13T20:05:17.861Z,99439.31
2023-01-13T20:07:19.287Z,99434.22
2023-01-13T20:09:20.637Z,99433.84
2023-01-13T20:11:22.158Z,99446.97
2023-01-13T20:13:23.537Z,99436.28
2023-01-13T20:15:24.940Z,99439.31
2023-01-13T20:17:26.351Z,99448.38
2023-01-13T20:19:27.796Z,99449.00
2023-01-13T20:21:29.166Z,99446.16
2023-01-13T20:23:31.159Z,99465.56
2023-01-13T20:25:32.586Z,99458.50
2023-01-13T20:27:34.063Z,99463.34
2023-01-13T20:29:35.701Z,99471.66
2023-01-13T20:31:37.582Z,99475.88
2023-01-13T20:33:39.576Z,99480.31
2023-01-13T20:35:40.978Z,99471.66
2023-01-13T20:37:42.788Z,99478.50
2023-01-13T20:39:45.915Z,99491.88
2023-01-13T20:42:13.648Z,99494.06
2023-01-13T20:44:15.335Z,99503.78
2023-01-13T20:46:16.853Z,99496.50
2023-01-13T20:48:18.240Z,99484.19
2023-01-13T20:50:20.011Z,99500.13
2023-01-13T20:52:21.656Z,99508.25
2023-01-13T20:54:23.115Z,99511.47
2023-01-13T20:56:24.964Z,99514.91
2023-01-13T20:58:26.355Z,99507.63
2023-01-13T21:00:28.539Z,99521.56
2023-01-13T21:02:30.336Z,99514.69
2023-01-13T21:04:31.735Z,99509.63
2023-01-13T21:06:33.573Z,99523.59
2023-01-13T21:08:35.202Z,99522.38
2023-01-13T21:10:36.640Z,99516.53
2023-01-13T21:12:56.685Z,99527.44
2023-01-13T21:15:16.482Z,99534.69
2023-01-13T21:17:36.204Z,99525.41
2023-01-13T21:19:37.564Z,99516.31
2023-01-13T21:21:39.135Z,99524.59
2023-01-13T21:23:42.352Z,99518.94
2023-01-13T21:25:43.695Z,99513.28
2023-01-13T21:27:45.254Z,99515.09
2023-01-13T21:29:46.653Z,99524.19
2023-01-13T21:31:48.771Z,99523.41
2023-01-13T21:33:57.773Z,99530.06
2023-01-13T21:36:07.961Z,99509.25
2023-01-13T21:38:10.993Z,99515.72
2023-01-13T21:40:13.997Z,99526.63
2023-01-13T21:42:34.805Z,99536.50
2023-01-13T21:44:54.538Z,99530.84
2023-01-13T21:47:14.245Z,99535.94
2023-01-13T21:49:15.644Z,99538.53
2023-01-13T21:51:17.036Z,99535.13
2023-01-13T21:53:18.549Z,99548.25
2023-01-13T21:55:25.220Z,99547.84
2023-01-13T21:57:28.000Z,99556.31
2023-01-13T21:59:29.383Z,99565.22
2023-01-13T22:01:30.840Z,99565.00
2023-01-13T22:03:51.354Z,99561.97
2023-01-13T22:05:55.955Z,99572.72
2023-01-13T22:07:57.701Z,99572.31
2023-01-13T22:09:59.217Z,99579.59
2023-01-13T22:12:01.433Z,99571.91
2023-01-13T22:14:06.452Z,99582.41
2023-01-13T22:16:09.129Z,99580.19
2023-01-13T22:18:10.538Z,99577.97
2023-01-13T22:20:13.041Z,99583.81
2023-01-13T22:22:16.377Z,99583.81
2023-01-13T22:24:17.739Z,99577.75
2023-01-13T22:26:19.196Z,99599.78
2023-01-13T22:28:25.087Z,99587.88
2023-01-13T22:30:31.699Z,99581.00
2023-01-13T22:32:36.318Z,99586.66
2023-01-13T22:34:37.926Z,99600.16
2023-01-13T22:36:39.282Z,99592.09
2023-01-13T22:38:40.718Z,99601.16
2023-01-13T22:40:42.178Z,99599.97
2023-01-13T22:42:43.522Z,99600.16
2023-01-13T22:44:44.928Z,99601.78
2023-01-13T22:46:46.373Z,99607.03
2023-01-13T22:48:48.303Z,99598.97
2023-01-13T22:50:49.741Z,99598.97
2023-01-13T22:52:51.201Z,99596.13
2023-01-13T22:54:52.550Z,99603.81
2023-01-13T22:56:53.932Z,99594.72
2023-01-13T22:58:57.457Z,99609.06
2023-01-13T23:01:14.698Z,99613.31
2023-01-13T23:03:16.334Z,99611.47
2023-01-13T23:05:17.718Z,99624.84
2023-01-13T23:07:19.116Z,99622.22
2023-01-13T23:09:20.721Z,99618.19
2023-01-13T23:11:24.713Z,99643.22
2023-01-13T23:13:26.141Z,99627.06
2023-01-13T23:15:27.596Z,99629.28
2023-01-13T23:17:28.982Z,99624.03
2023-01-13T23:19:30.411Z,99635.56
2023-01-13T23:21:36.669Z,99626.66
2023-01-13T23:23:38.616Z,99628.88
2023-01-13T23:25:39.996Z,99626.47
2023-01-13T23:27:41.375Z,99621.22
2023-01-13T23:29:42.736Z,99631.09
2023-01-13T23:31:44.211Z,99634.53
2023-01-13T23:33:45.859Z,99649.50
2023-01-13T23:35:58.506Z,99631.50
2023-01-13T23:37:59.865Z,99650.91
2023-01-13T23:40:01.302Z,99644.25
2023-01-13T23:42:02.714Z,99642.66
2023-01-13T23:44:04.220Z,99644.06
2023-01-13T23:46:08.585Z,99634.94
2023-01-13T23:48:10.105Z,99644.25
2023-01-13T23:50:11.534Z,99655.56
2023-01-13T23:52:12.929Z,99640.44
2023-01-13T23:54:14.334Z,99651.53
2023-01-13T23:56:21.776Z,99637.81
2023-01-13T23:58:23.413Z,99649.13
